createdAt,value
2019-03-27T00:01:44.551Z,10.07
2019-03-27T00:04:20.848Z,9.38
2019-03-27T00:06:49.150Z,9.01
2019-03-27T00:09:22.638Z,9.23
2019-03-27T00:11:52.244Z,8.96
2019-03-27T00:14:21.914Z,9.25
2019-03-27T00:16:53.902Z,8.99
2019-03-27T00:19:26.117Z,9.37
2019-03-27T00:21:57.052Z,9.02
2019-03-27T00:24:26.859Z,9.37
2019-03-27T00:27:02.401Z,9.03
2019-03-27T00:29:36.727Z,10.11
2019-03-27T00:32:11.908Z,9.46
2019-03-27T00:34:41.549Z,9.26
2019-03-27T00:37:11.178Z,9.75
2019-03-27T00:39:40.876Z,9.91
2019-03-27T00:42:13.859Z,10.20
2019-03-27T00:44:43.902Z,10.13
2019-03-27T00:47:18.423Z,9.62
2019-03-27T00:49:50.735Z,9.68
2019-03-27T00:52:23.017Z,9.98
2019-03-27T00:54:55.623Z,0.96
2019-03-27T00:57:29.488Z,9.40
2019-03-27T00:59:59.362Z,10.29
2019-03-27T01:02:28.978Z,10.19
2019-03-27T01:04:59.466Z,10.31
2019-03-27T01:07:29.089Z,10.26
2019-03-27T01:09:58.685Z,9.80
2019-03-27T01:12:28.539Z,10.37
2019-03-27T01:14:58.139Z,10.45
2019-03-27T01:17:27.932Z,10.29
2019-03-27T01:20:02.456Z,10.52
2019-03-27T01:22:32.066Z,10.38
2019-03-27T01:25:01.646Z,2.04
2019-03-27T01:27:31.570Z,10.54
2019-03-27T01:30:01.506Z,10.58
2019-03-27T01:32:31.259Z,10.48
2019-03-27T01:35:01.175Z,10.40
2019-03-27T01:37:35.732Z,10.33
2019-03-27T01:40:07.704Z,10.31
2019-03-27T01:42:41.869Z,10.43
2019-03-27T01:45:17.218Z,10.53
2019-03-27T01:47:58.157Z,10.52
2019-03-27T01:50:30.352Z,10.32
2019-03-27T01:53:02.719Z,10.34
2019-03-27T01:55:36.847Z,10.25
2019-03-27T01:58:06.644Z,10.46
2019-03-27T02:00:39.012Z,10.62
2019-03-27T02:03:08.775Z,10.17
2019-03-27T02:05:42.608Z,10.64
2019-03-27T02:08:12.260Z,10.77
2019-03-27T02:10:53.773Z,10.93
2019-03-27T02:13:25.149Z,11.10
2019-03-27T02:16:06.655Z,11.20
2019-03-27T02:18:43.916Z,10.88
2019-03-27T02:21:15.908Z,10.95
2019-03-27T02:23:45.523Z,11.07
2019-03-27T02:26:15.157Z,10.97
2019-03-27T02:28:46.223Z,11.11
2019-03-27T02:31:18.379Z,10.75
2019-03-27T02:33:49.238Z,10.94
2019-03-27T02:36:18.879Z,10.81
2019-03-27T02:38:48.965Z,10.61
2019-03-27T02:41:19.495Z,10.41
2019-03-27T02:43:51.621Z,11.01
2019-03-27T02:46:26.924Z,10.78
2019-03-27T02:48:58.808Z,10.85
2019-03-27T02:51:34.025Z,10.77
2019-03-27T02:54:02.253Z,10.84
2019-03-27T02:56:31.945Z,10.98
2019-03-27T02:59:02.022Z,10.96
2019-03-27T03:01:32.766Z,10.78
2019-03-27T03:04:02.373Z,10.76
2019-03-27T03:06:32.345Z,10.78
2019-03-27T03:09:04.791Z,10.37
2019-03-27T03:11:34.866Z,10.03
2019-03-27T03:14:04.669Z,9.79
2019-03-27T03:16:42.392Z,9.89
2019-03-27T03:19:05.884Z,9.78
2019-03-27T03:21:35.602Z,9.55
2019-03-27T03:24:06.559Z,9.51
2019-03-27T03:26:40.166Z,9.64
2019-03-27T03:29:12.865Z,9.66
2019-03-27T03:31:46.824Z,9.67
2019-03-27T03:34:18.924Z,9.46
2019-03-27T03:36:51.122Z,9.75
2019-03-27T03:39:24.720Z,9.73
2019-03-27T03:41:54.439Z,9.86
2019-03-27T03:44:27.069Z,10.02
2019-03-27T03:47:00.077Z,9.97
2019-03-27T03:49:34.981Z,9.93
2019-03-27T03:52:07.411Z,10.33
2019-03-27T03:54:37.414Z,10.23
2019-03-27T03:57:12.319Z,10.22
2019-03-27T03:59:42.411Z,10.27
2019-03-27T04:02:12.960Z,10.42
2019-03-27T04:04:44.202Z,10.51
2019-03-27T04:07:16.955Z,10.57
2019-03-27T04:09:48.548Z,10.46
2019-03-27T04:12:21.433Z,10.30
2019-03-27T04:14:51.279Z,10.14
2019-03-27T04:17:20.916Z,10.07
2019-03-27T04:19:50.559Z,10.05
2019-03-27T04:22:24.128Z,10.13
2019-03-27T04:24:56.240Z,10.35
2019-03-27T04:27:27.555Z,10.14
2019-03-27T04:30:05.159Z,10.18
2019-03-27T04:32:38.104Z,10.30
2019-03-27T04:35:13.690Z,10.35
2019-03-27T04:37:43.708Z,10.27
2019-03-27T04:40:15.422Z,10.18
2019-03-27T04:42:55.584Z,10.16
2019-03-27T04:45:30.174Z,10.22
2019-03-27T04:48:02.644Z,10.23
2019-03-27T04:50:32.264Z,10.33
2019-03-27T04:53:01.902Z,10.51
2019-03-27T04:55:33.350Z,9.99
2019-03-27T04:58:03.895Z,10.05
2019-03-27T05:00:37.037Z,9.85
2019-03-27T05:03:07.088Z,9.68
2019-03-27T05:05:40.165Z,9.55
2019-03-27T05:08:09.747Z,9.60
2019-03-27T05:10:39.420Z,9.65
2019-03-27T05:13:11.113Z,9.94
2019-03-27T05:15:41.925Z,9.78
2019-03-27T05:18:11.748Z,9.93
2019-03-27T05:20:46.169Z,10.12
2019-03-27T05:23:17.212Z,10.15
2019-03-27T05:25:48.232Z,10.17
2019-03-27T05:28:18.194Z,10.08
2019-03-27T05:30:49.479Z,10.13
2019-03-27T05:33:19.155Z,10.15
2019-03-27T05:35:53.462Z,10.05
2019-03-27T05:38:23.262Z,9.91
2019-03-27T05:40:52.892Z,10.19
2019-03-27T05:43:22.538Z,10.14
2019-03-27T05:45:55.442Z,9.96
2019-03-27T05:48:28.162Z,10.02
2019-03-27T05:50:57.791Z,10.12
2019-03-27T05:53:27.438Z,10.07
2019-03-27T05:55:57.180Z,10.04
2019-03-27T05:58:26.787Z,10.03
2019-03-27T06:00:56.455Z,9.99
2019-03-27T06:03:26.069Z,10.14
2019-03-27T06:05:55.705Z,9.99
2019-03-27T06:08:25.525Z,10.17
2019-03-27T06:11:00.722Z,10.34
2019-03-27T06:13:30.877Z,10.06
2019-03-27T06:16:03.009Z,10.13
2019-03-27T06:18:32.821Z,10.13
2019-03-27T06:21:05.766Z,10.15
2019-03-27T06:23:35.451Z,9.78
2019-03-27T06:26:08.304Z,10.31
2019-03-27T06:28:44.825Z,10.41
2019-03-27T06:31:17.598Z,10.23
2019-03-27T06:33:49.904Z,10.22
2019-03-27T06:36:25.095Z,10.44
2019-03-27T06:38:55.088Z,10.45
2019-03-27T06:41:25.841Z,10.13
2019-03-27T06:43:55.501Z,10.20
2019-03-27T06:46:25.171Z,10.04
2019-03-27T06:48:55.077Z,10.01
2019-03-27T06:51:40.004Z,9.85
2019-03-27T06:54:08.319Z,9.86
2019-03-27T06:56:43.982Z,9.53
2019-03-27T06:59:16.132Z,9.53
2019-03-27T07:04:36.687Z,9.35
2019-03-27T07:07:09.304Z,9.31
2019-03-27T07:09:42.638Z,9.25
2019-03-27T07:12:20.968Z,9.03
2019-03-27T07:14:48.209Z,9.29
2019-03-27T07:17:20.705Z,9.45
2019-03-27T07:19:54.493Z,9.48
2019-03-27T07:22:24.160Z,9.31
2019-03-27T07:24:55.183Z,9.18
2019-03-27T07:27:30.584Z,9.16
2019-03-27T07:30:01.591Z,9.38
2019-03-27T07:32:35.743Z,9.13
2019-03-27T07:35:06.433Z,9.08
2019-03-27T07:37:37.881Z,8.83
2019-03-27T07:40:10.301Z,9.02
2019-03-27T07:42:40.101Z,9.14
2019-03-27T07:45:12.212Z,9.20
2019-03-27T07:47:43.587Z,9.00
2019-03-27T07:50:26.560Z,9.14
2019-03-27T07:53:01.240Z,9.49
2019-03-27T07:55:38.649Z,9.37
2019-03-27T07:58:10.550Z,9.71
2019-03-27T08:00:47.306Z,9.41
2019-03-27T08:03:19.176Z,9.44
2019-03-27T08:05:56.758Z,9.64
2019-03-27T08:08:26.315Z,9.77
2019-03-27T08:10:59.105Z,9.91
2019-03-27T08:13:28.707Z,10.10
2019-03-27T08:16:02.218Z,10.08
2019-03-27T08:18:31.816Z,9.98
2019-03-27T08:21:04.328Z,7.98
2019-03-27T08:23:36.190Z,10.16
2019-03-27T08:26:07.788Z,9.99
2019-03-27T08:28:37.331Z,9.93
2019-03-27T08:31:09.510Z,10.04
2019-03-27T08:33:44.861Z,10.10
2019-03-27T08:36:15.313Z,9.85
2019-03-27T08:38:47.689Z,10.11
2019-03-27T08:41:24.403Z,10.02
2019-03-27T08:44:06.362Z,10.36
2019-03-27T08:46:39.016Z,10.49
2019-03-27T08:49:21.099Z,10.75
2019-03-27T08:51:40.980Z,10.80
2019-03-27T08:54:11.784Z,10.68
2019-03-27T08:56:48.342Z,10.83
2019-03-27T08:59:18.853Z,10.84
2019-03-27T09:01:50.143Z,10.65
2019-03-27T09:04:19.770Z,10.79
2019-03-27T09:06:55.366Z,10.74
2019-03-27T09:09:33.127Z,10.67
2019-03-27T09:12:03.805Z,11.23
2019-03-27T09:14:36.252Z,11.36
2019-03-27T09:17:08.625Z,11.21
2019-03-27T09:19:41.012Z,11.18
2019-03-27T09:22:11.630Z,11.54
2019-03-27T09:24:45.378Z,11.01
2019-03-27T09:27:15.158Z,10.95
2019-03-27T09:29:48.414Z,10.76
2019-03-27T09:32:19.953Z,10.72
2019-03-27T09:34:51.537Z,10.22
2019-03-27T09:37:26.826Z,10.63
2019-03-27T09:39:56.427Z,10.63
2019-03-27T09:42:28.072Z,10.57
2019-03-27T09:45:01.268Z,10.60
2019-03-27T09:47:34.341Z,10.74
2019-03-27T09:50:03.894Z,10.76
2019-03-27T09:52:33.491Z,10.91
2019-03-27T09:55:04.880Z,10.70
2019-03-27T09:57:34.634Z,10.59
2019-03-27T10:00:09.286Z,10.96
2019-03-27T10:02:39.847Z,11.40
2019-03-27T10:05:15.791Z,11.31
2019-03-27T10:07:48.163Z,11.37
2019-03-27T10:10:19.228Z,11.20
2019-03-27T10:12:49.770Z,11.42
2019-03-27T10:15:19.469Z,11.81
2019-03-27T10:17:49.139Z,11.84
2019-03-27T10:20:18.730Z,11.87
2019-03-27T10:23:12.275Z,11.87
2019-03-27T10:25:50.267Z,11.96
2019-03-27T10:28:19.985Z,12.18
2019-03-27T10:30:49.840Z,12.76
2019-03-27T10:33:20.033Z,13.44
2019-03-27T10:35:51.190Z,13.39
2019-03-27T10:38:21.096Z,13.15
2019-03-27T10:40:50.837Z,13.04
2019-03-27T10:43:20.590Z,13.19
2019-03-27T10:45:50.301Z,12.82
2019-03-27T10:48:20.004Z,12.90
2019-03-27T10:50:49.881Z,13.25
2019-03-27T10:53:20.271Z,13.34
2019-03-27T10:55:53.391Z,13.32
2019-03-27T10:58:23.683Z,13.40
2019-03-27T11:00:54.153Z,13.15
2019-03-27T11:03:25.558Z,12.83
2019-03-27T11:05:56.095Z,12.87
2019-03-27T11:08:25.727Z,12.81
2019-03-27T11:10:58.492Z,12.57
2019-03-27T11:13:30.442Z,12.58
2019-03-27T11:16:01.911Z,12.51
2019-03-27T11:18:38.816Z,12.94
2019-03-27T11:21:12.806Z,13.51
2019-03-27T11:23:51.907Z,13.02
2019-03-27T11:26:24.979Z,12.96
2019-03-27T11:28:58.769Z,13.06
2019-03-27T11:31:28.976Z,13.64
2019-03-27T11:33:58.654Z,13.37
2019-03-27T11:36:37.495Z,14.19
2019-03-27T11:39:11.283Z,13.98
2019-03-27T11:41:49.453Z,14.22
2019-03-27T11:44:21.779Z,14.11
2019-03-27T11:46:57.327Z,13.93
2019-03-27T11:49:26.924Z,13.56
2019-03-27T11:51:56.817Z,13.04
2019-03-27T11:54:29.724Z,12.64
2019-03-27T11:57:00.611Z,12.57
2019-03-27T11:59:30.291Z,12.42
2019-03-27T12:02:01.776Z,12.16
2019-03-27T12:04:31.410Z,12.27
2019-03-27T12:07:02.113Z,12.12
2019-03-27T12:09:31.998Z,12.37
2019-03-27T12:12:02.489Z,12.42
2019-03-27T12:14:33.575Z,12.67
2019-03-27T12:17:03.439Z,12.53
2019-03-27T12:19:37.833Z,12.11
2019-03-27T12:22:11.628Z,12.06
2019-03-27T12:24:44.141Z,12.22
2019-03-27T12:27:35.978Z,12.08
2019-03-27T12:30:08.044Z,12.06
2019-03-27T12:32:41.238Z,12.08
2019-03-27T12:35:16.376Z,11.78
2019-03-27T12:37:46.960Z,11.82
2019-03-27T12:40:20.718Z,12.20
2019-03-27T12:42:54.304Z,12.35
2019-03-27T12:45:33.448Z,12.54
2019-03-27T12:48:06.486Z,12.33
2019-03-27T12:50:36.283Z,12.08
2019-03-27T12:53:15.983Z,12.13
2019-03-27T12:55:49.111Z,12.12
2019-03-27T12:58:18.732Z,12.22
2019-03-27T13:00:50.211Z,12.48
2019-03-27T13:03:19.811Z,12.44
2019-03-27T13:05:49.500Z,12.35
2019-03-27T13:08:20.384Z,12.40
2019-03-27T13:10:52.029Z,12.44
2019-03-27T13:13:24.533Z,12.79
2019-03-27T13:15:54.162Z,12.41
2019-03-27T13:18:23.874Z,12.34
2019-03-27T13:20:54.300Z,12.58
2019-03-27T13:23:24.168Z,12.32
2019-03-27T13:25:54.766Z,12.36
2019-03-27T13:28:24.415Z,12.37
2019-03-27T13:30:56.955Z,12.71
2019-03-27T13:33:26.549Z,12.70
2019-03-27T13:35:56.477Z,13.22
2019-03-27T13:38:31.587Z,11.45
2019-03-27T13:41:06.300Z,13.02
2019-03-27T13:43:36.787Z,12.88
2019-03-27T13:46:06.725Z,13.20
2019-03-27T13:48:36.994Z,13.76
2019-03-27T13:51:11.507Z,13.94
2019-03-27T13:53:41.309Z,14.03
2019-03-27T13:56:14.012Z,13.80
2019-03-27T13:58:44.080Z,13.52
2019-03-27T14:01:15.350Z,13.16
2019-03-27T14:03:47.873Z,12.92
2019-03-27T14:06:23.262Z,12.75
2019-03-27T14:08:55.965Z,12.79
2019-03-27T14:11:27.393Z,12.70
2019-03-27T14:14:10.305Z,13.63
2019-03-27T14:16:29.443Z,14.42
2019-03-27T14:18:59.008Z,14.46
2019-03-27T14:21:30.333Z,14.87
2019-03-27T14:24:03.905Z,15.23
2019-03-27T14:26:44.893Z,15.69
2019-03-27T14:29:06.454Z,15.70
2019-03-27T14:31:37.783Z,16.28
2019-03-27T14:34:07.629Z,15.60
2019-03-27T14:36:39.431Z,15.14
2019-03-27T14:39:18.775Z,14.42
2019-03-27T14:41:54.815Z,14.10
2019-03-27T14:44:22.326Z,14.07
2019-03-27T14:46:52.223Z,13.30
2019-03-27T14:49:22.019Z,13.31
2019-03-27T14:52:07.631Z,13.10
2019-03-27T14:54:27.353Z,13.27
2019-03-27T14:56:59.224Z,13.20
2019-03-27T14:59:30.324Z,13.65
2019-03-27T15:02:01.147Z,14.14
2019-03-27T15:04:36.477Z,14.75
2019-03-27T15:07:09.078Z,15.44
2019-03-27T15:09:43.938Z,14.52
2019-03-27T15:12:15.209Z,13.84
2019-03-27T15:14:46.037Z,13.38
2019-03-27T15:17:17.998Z,13.17
2019-03-27T15:19:57.435Z,12.54
2019-03-27T15:22:28.679Z,12.96
2019-03-27T15:24:58.331Z,13.09
2019-03-27T15:27:30.834Z,12.91
2019-03-27T15:30:00.490Z,13.14
2019-03-27T15:32:30.307Z,13.11
2019-03-27T15:35:00.027Z,13.06
2019-03-27T15:37:29.726Z,13.06
2019-03-27T15:40:00.720Z,13.16
2019-03-27T15:42:38.659Z,13.21
2019-03-27T15:45:15.104Z,13.36
2019-03-27T15:47:44.734Z,13.60
2019-03-27T15:50:14.881Z,13.95
2019-03-27T15:52:44.577Z,13.74
2019-03-27T15:55:16.918Z,12.74
2019-03-27T15:57:46.694Z,12.62
2019-03-27T16:00:16.992Z,12.82
2019-03-27T16:02:49.259Z,12.74
2019-03-27T16:05:18.898Z,12.65
2019-03-27T16:07:54.470Z,12.65
2019-03-27T16:10:31.402Z,12.87
2019-03-27T16:13:01.038Z,12.83
2019-03-27T16:15:31.166Z,12.72
2019-03-27T16:18:05.019Z,12.71
2019-03-27T16:20:34.645Z,12.58
2019-03-27T16:23:04.562Z,12.67
2019-03-27T16:25:34.577Z,12.71
2019-03-27T16:28:04.208Z,12.71
2019-03-27T16:30:39.393Z,12.71
2019-03-27T16:33:11.862Z,12.60
2019-03-27T16:35:43.896Z,12.70
2019-03-27T16:38:16.889Z,12.86
2019-03-27T16:40:53.759Z,13.01
2019-03-27T16:43:26.705Z,13.06
2019-03-27T16:45:56.305Z,13.07
2019-03-27T16:48:28.772Z,13.17
2019-03-27T16:50:58.394Z,13.25
2019-03-27T16:53:28.385Z,13.16
2019-03-27T16:55:58.019Z,13.12
2019-03-27T16:58:32.690Z,13.25
2019-03-27T17:01:02.335Z,13.11
2019-03-27T17:03:32.054Z,13.20
2019-03-27T17:06:05.252Z,13.12
2019-03-27T17:08:35.463Z,13.12
2019-03-27T17:11:10.561Z,13.15
2019-03-27T17:13:43.602Z,12.86
2019-03-27T17:16:13.664Z,12.68
2019-03-27T17:18:45.633Z,12.66
2019-03-27T17:21:15.588Z,12.61
2019-03-27T17:23:45.728Z,12.63
2019-03-27T17:26:18.384Z,12.72
2019-03-27T17:28:47.993Z,12.61
2019-03-27T17:31:19.094Z,12.75
2019-03-27T17:33:50.415Z,12.85
2019-03-27T17:36:20.880Z,12.89
2019-03-27T17:38:53.227Z,10.65
2019-03-27T17:41:31.598Z,12.95
2019-03-27T17:44:02.908Z,12.86
2019-03-27T17:46:33.365Z,12.91
2019-03-27T17:49:05.555Z,12.94
2019-03-27T17:51:36.248Z,13.00
2019-03-27T17:54:20.428Z,13.04
2019-03-27T17:56:43.125Z,13.01
2019-03-27T17:59:15.715Z,12.97
2019-03-27T18:01:50.670Z,13.05
2019-03-27T18:04:20.673Z,13.05
2019-03-27T18:06:50.383Z,12.92
2019-03-27T18:09:25.665Z,12.90
2019-03-27T18:11:58.243Z,12.91
2019-03-27T18:14:27.973Z,12.72
2019-03-27T18:16:57.605Z,12.72
2019-03-27T18:19:27.179Z,12.50
2019-03-27T18:22:07.468Z,12.52
2019-03-27T18:24:31.598Z,12.57
2019-03-27T18:27:01.341Z,12.53
2019-03-27T18:29:33.427Z,12.55
2019-03-27T18:32:05.870Z,12.53
2019-03-27T18:34:36.264Z,12.48
2019-03-27T18:37:11.111Z,12.41
2019-03-27T18:39:43.524Z,12.32
2019-03-27T18:42:13.614Z,12.18
2019-03-27T18:44:44.833Z,12.24
2019-03-27T18:47:34.776Z,12.27
2019-03-27T18:50:05.383Z,12.39
2019-03-27T18:52:35.034Z,12.42
2019-03-27T18:55:25.467Z,12.55
2019-03-27T18:58:00.163Z,12.38
2019-03-27T19:00:23.402Z,12.43
2019-03-27T19:02:53.027Z,12.44
2019-03-27T19:05:22.619Z,12.54
2019-03-27T19:07:52.332Z,12.49
2019-03-27T19:10:22.119Z,12.46
2019-03-27T19:12:51.854Z,12.36
2019-03-27T19:15:21.560Z,12.34
2019-03-27T19:17:52.979Z,12.46
2019-03-27T19:20:22.626Z,12.45
2019-03-27T19:22:52.534Z,12.36
2019-03-27T19:25:23.383Z,3.74
2019-03-27T19:27:59.199Z,12.41
2019-03-27T19:30:28.910Z,12.45
2019-03-27T19:33:01.436Z,12.43
2019-03-27T19:35:34.158Z,12.42
2019-03-27T19:38:05.542Z,12.48
2019-03-27T19:40:35.497Z,12.61
2019-03-27T19:43:06.709Z,12.62
2019-03-27T19:45:36.422Z,12.69
2019-03-27T19:48:14.738Z,12.78
2019-03-27T19:50:48.792Z,12.89
2019-03-27T19:53:23.524Z,12.90
2019-03-27T19:55:54.342Z,12.86
2019-03-27T19:58:34.716Z,12.91
2019-03-27T20:01:05.098Z,12.88
2019-03-27T20:03:34.960Z,12.74
2019-03-27T20:06:09.803Z,12.81
2019-03-27T20:08:39.455Z,12.87
2019-03-27T20:11:09.234Z,12.94
2019-03-27T20:13:39.035Z,12.95
2019-03-27T20:16:10.389Z,12.79
2019-03-27T20:18:41.008Z,12.86
2019-03-27T20:21:11.617Z,12.83
2019-03-27T20:23:43.488Z,12.95
2019-03-27T20:26:13.600Z,12.87
2019-03-27T20:28:44.660Z,12.83
2019-03-27T20:31:14.490Z,13.04
2019-03-27T20:33:44.389Z,12.99
2019-03-27T20:36:16.611Z,12.86
2019-03-27T20:38:49.528Z,12.99
2019-03-27T20:41:19.187Z,12.87
2019-03-27T20:43:55.065Z,12.85
2019-03-27T20:46:29.136Z,12.51
2019-03-27T20:48:56.936Z,12.29
2019-03-27T20:51:29.671Z,12.11
2019-03-27T20:54:01.343Z,12.19
2019-03-27T20:56:31.095Z,12.07
2019-03-27T20:59:01.590Z,12.20
2019-03-27T21:01:31.664Z,12.21
2019-03-27T21:04:05.142Z,11.86
2019-03-27T21:06:38.233Z,12.05
2019-03-27T21:09:07.866Z,11.82
2019-03-27T21:11:40.682Z,10.42
2019-03-27T21:14:10.248Z,11.90
2019-03-27T21:16:40.130Z,11.98
2019-03-27T21:19:12.043Z,11.89
2019-03-27T21:21:42.217Z,11.83
2019-03-27T21:24:13.233Z,11.97
2019-03-27T21:26:42.853Z,12.08
2019-03-27T21:29:13.617Z,11.88
2019-03-27T21:31:46.205Z,11.74
2019-03-27T21:34:20.916Z,11.53
2019-03-27T21:36:50.835Z,11.40
2019-03-27T21:39:22.169Z,11.20
2019-03-27T21:41:53.273Z,11.32
2019-03-27T21:44:22.982Z,11.31
2019-03-27T21:46:55.313Z,10.67
2019-03-27T21:49:25.356Z,10.72
2019-03-27T21:51:57.434Z,11.15
2019-03-27T21:54:27.176Z,11.44
2019-03-27T21:56:56.792Z,11.63
2019-03-27T21:59:26.457Z,11.65
2019-03-27T22:01:57.177Z,10.81
2019-03-27T22:04:29.813Z,11.31
2019-03-27T22:07:00.027Z,11.18
2019-03-27T22:09:32.297Z,11.26
2019-03-27T22:12:02.787Z,11.38
2019-03-27T22:14:51.521Z,11.59
2019-03-27T22:17:26.772Z,11.70
2019-03-27T22:19:57.630Z,11.58
2019-03-27T22:22:30.215Z,11.23
2019-03-27T22:25:02.000Z,11.47
2019-03-27T22:27:32.221Z,11.25
2019-03-27T22:30:03.649Z,11.24
2019-03-27T22:32:33.377Z,11.24
2019-03-27T22:35:03.334Z,10.77
2019-03-27T22:37:33.003Z,11.16
2019-03-27T22:40:02.620Z,11.17
2019-03-27T22:42:33.557Z,11.05
2019-03-27T22:45:04.965Z,10.84
2019-03-27T22:47:34.984Z,10.61
2019-03-27T22:50:08.897Z,11.06
2019-03-27T22:52:44.413Z,11.29
2019-03-27T22:55:13.991Z,11.26
2019-03-27T22:57:45.081Z,11.27
2019-03-27T23:00:32.437Z,10.66
2019-03-27T23:02:49.634Z,10.54
2019-03-27T23:05:20.773Z,10.76
2019-03-27T23:07:59.475Z,10.04
2019-03-27T23:10:29.250Z,10.38
2019-03-27T23:12:58.938Z,10.51
2019-03-27T23:15:29.670Z,10.68
2019-03-27T23:17:59.239Z,10.87
2019-03-27T23:20:30.018Z,10.94
2019-03-27T23:23:02.708Z,10.77
2019-03-27T23:25:33.687Z,10.65
2019-03-27T23:28:03.289Z,10.45
2019-03-27T23:30:32.856Z,9.99
2019-03-27T23:33:08.813Z,10.17
2019-03-27T23:35:38.634Z,10.31
2019-03-27T23:38:08.520Z,10.32
2019-03-27T23:40:42.603Z,10.07
2019-03-27T23:43:12.218Z,9.84
2019-03-27T23:45:46.002Z,9.66
2019-03-27T23:48:15.718Z,9.82
2019-03-27T23:50:45.332Z,9.75
2019-03-27T23:53:14.924Z,9.87
2019-03-27T23:55:47.458Z,10.24
2019-03-27T23:58:17.061Z,10.55
